Time;durP1;ratioP1;P1;durP2;ratioP2;P2;SDS_P1;SDS_P2;PMS_P1;PMS_P2;Temp;Humidity;BMP_temperature;BMP_pressure;BME280_temperature;BME280_humidity;BME280_pressure;Samples;Min_cycle;Max_cycle;Signal;HPM_P1;HPM_P2
2020/12/26 00:00:55;;;;;;;16.70;12.70;;;1.10;99.90;;;;;;5006248;28;20571;-55
2020/12/26 00:03:22;;;;;;;16.83;13.33;;;0.90;99.90;;;;;;5007488;28;20508;-56
2020/12/26 00:05:49;;;;;;;16.73;12.17;;;1.10;99.90;;;;;;5007327;28;20546;-55
2020/12/26 00:08:17;;;;;;;19.07;11.53;;;0.80;99.90;;;;;;5007536;28;20519;-54
2020/12/26 00:10:44;;;;;;;17.30;13.83;;;0.70;99.90;;;;;;4989343;28;20480;-55
2020/12/26 00:13:13;;;;;;;23.73;16.57;;;0.80;99.90;;;;;;5007461;28;20831;-54
2020/12/26 00:15:40;;;;;;;28.43;19.07;;;0.90;99.90;;;;;;5007275;28;20491;-54
2020/12/26 00:18:08;;;;;;;21.33;16.10;;;1.10;99.90;;;;;;5007653;28;20555;-54
2020/12/26 00:20:37;;;;;;;21.67;15.20;;;0.80;99.90;;;;;;5006609;28;20476;-54
2020/12/26 00:23:04;;;;;;;22.87;15.13;;;0.70;99.90;;;;;;5006882;28;20873;-54
2020/12/26 00:25:31;;;;;;;21.77;14.20;;;0.70;99.90;;;;;;5007185;28;20516;-54
2020/12/26 00:27:59;;;;;;;20.37;13.40;;;0.70;99.90;;;;;;5007770;28;20892;-54
2020/12/26 00:30:26;;;;;;;20.50;13.50;;;0.70;99.90;;;;;;5008967;28;20502;-54
2020/12/26 00:32:53;;;;;;;17.90;13.43;;;0.60;99.90;;;;;;5008197;28;20500;-54
2020/12/26 00:35:22;;;;;;;17.27;13.17;;;0.60;99.90;;;;;;5008344;28;20566;-55
2020/12/26 00:37:50;;;;;;;19.43;12.87;;;0.60;99.90;;;;;;5010258;28;20472;-54
2020/12/26 00:40:17;;;;;;;17.00;12.63;;;0.70;99.90;;;;;;5009888;28;20464;-54
2020/12/26 00:42:44;;;;;;;20.50;14.03;;;0.70;99.90;;;;;;5008206;28;20487;-54
2020/12/26 00:45:13;;;;;;;18.07;12.57;;;0.60;99.90;;;;;;5008205;28;20511;-55
2020/12/26 00:47:40;;;;;;;23.10;14.73;;;0.70;99.90;;;;;;5008149;28;20825;-56
2020/12/26 00:50:07;;;;;;;21.80;14.53;;;0.70;99.90;;;;;;5007547;28;20556;-54
2020/12/26 00:52:36;;;;;;;23.13;14.47;;;0.70;99.90;;;;;;4996416;28;20492;-54
2020/12/26 00:55:03;;;;;;;18.20;13.77;;;0.70;99.90;;;;;;4992876;28;20480;-54
2020/12/26 00:57:31;;;;;;;21.13;14.70;;;0.70;99.90;;;;;;5009025;28;20538;-54
2020/12/26 00:59:58;;;;;;;21.17;13.97;;;0.70;99.90;;;;;;5009270;28;20958;-55
2020/12/26 01:02:26;;;;;;;18.77;13.87;;;0.80;99.90;;;;;;5007682;28;20480;-55
2020/12/26 01:04:55;;;;;;;20.17;15.77;;;1.00;99.90;;;;;;4992363;28;20485;-54
2020/12/26 01:07:22;;;;;;;22.10;15.57;;;0.80;99.90;;;;;;5010411;28;20547;-54
2020/12/26 01:09:51;;;;;;;19.90;14.67;;;0.70;99.90;;;;;;5009481;28;20591;-54
2020/12/26 01:12:18;;;;;;;20.17;15.70;;;0.70;99.90;;;;;;5009643;28;20515;-56
2020/12/26 01:14:46;;;;;;;26.23;19.73;;;1.00;99.90;;;;;;5010600;28;20512;-53
2020/12/26 01:17:15;;;;;;;25.77;17.90;;;0.90;99.90;;;;;;5009836;28;20482;-55
2020/12/26 01:19:56;;;;;;;24.17;16.77;;;0.80;99.90;;;;;;5009262;28;20897;-56
2020/12/26 01:22:23;;;;;;;22.00;15.33;;;0.80;99.90;;;;;;5008858;28;20566;-54
2020/12/26 01:24:52;;;;;;;23.80;17.67;;;0.80;99.90;;;;;;5010047;28;20508;-53
2020/12/26 01:27:19;;;;;;;26.27;17.53;;;0.80;99.90;;;;;;5009839;28;20587;-54
2020/12/26 01:29:47;;;;;;;28.27;19.03;;;0.90;99.90;;;;;;5006986;28;20476;-54
2020/12/26 01:32:15;;;;;;;28.57;18.73;;;0.80;99.90;;;;;;5006437;28;20486;-54
2020/12/26 01:34:42;;;;;;;27.47;17.73;;;0.80;99.90;;;;;;5009573;28;20478;-54
2020/12/26 01:37:09;;;;;;;27.97;17.63;;;0.80;99.90;;;;;;5009316;28;20507;-54
2020/12/26 01:39:40;;;;;;;26.20;17.57;;;0.70;99.90;;;;;;5008898;28;20484;-54
2020/12/26 01:42:08;;;;;;;29.17;17.63;;;0.80;99.90;;;;;;5007770;28;20485;-55
2020/12/26 01:44:35;;;;;;;29.83;20.80;;;1.10;99.90;;;;;;5009069;28;20473;-54
2020/12/26 01:47:03;;;;;;;31.37;20.07;;;0.90;99.90;;;;;;5009501;28;21032;-54
2020/12/26 01:49:34;;;;;;;29.13;17.87;;;1.00;99.90;;;;;;5008834;28;20480;-54
2020/12/26 01:52:02;;;;;;;26.37;18.63;;;0.90;99.90;;;;;;5008362;28;20918;-54
2020/12/26 01:54:30;;;;;;;25.23;18.63;;;0.90;99.90;;;;;;5009154;28;20942;-56
2020/12/26 01:56:58;;;;;;;25.70;18.30;;;0.90;99.90;;;;;;5008931;28;21066;-54
2020/12/26 01:59:28;;;;;;;24.17;17.37;;;0.90;99.90;;;;;;4991962;28;20512;-54
2020/12/26 02:01:57;;;;;;;27.17;18.97;;;0.90;99.90;;;;;;4988375;28;20481;-54
2020/12/26 02:04:24;;;;;;;27.63;17.73;;;0.90;99.90;;;;;;4989638;28;20527;-55
2020/12/26 02:06:54;;;;;;;26.27;17.73;;;0.90;99.90;;;;;;4998675;28;20831;-55
2020/12/26 02:09:25;;;;;;;27.43;18.70;;;1.10;99.90;;;;;;5008735;28;20483;-54
2020/12/26 02:11:53;;;;;;;31.80;20.40;;;1.20;99.90;;;;;;5007677;28;20476;-55
2020/12/26 02:14:20;;;;;;;24.37;18.60;;;1.10;99.90;;;;;;5009066;28;20474;-54
2020/12/26 02:16:50;;;;;;;26.43;18.07;;;1.00;99.90;;;;;;5008748;28;20551;-54
2020/12/26 02:19:20;;;;;;;23.60;18.10;;;1.00;99.90;;;;;;5009332;28;20500;-54
2020/12/26 02:21:47;;;;;;;24.40;16.33;;;0.90;99.90;;;;;;5007614;28;20488;-54
2020/12/26 02:24:16;;;;;;;21.20;16.93;;;1.00;99.90;;;;;;4992084;28;21083;-54
2020/12/26 02:26:43;;;;;;;21.33;15.77;;;1.00;99.90;;;;;;4994646;28;20484;-55
2020/12/26 02:29:11;;;;;;;21.93;15.97;;;1.00;99.90;;;;;;5006379;28;21216;-54
2020/12/26 02:31:38;;;;;;;22.87;14.97;;;1.00;99.90;;;;;;5006694;28;20486;-54
2020/12/26 02:34:06;;;;;;;20.63;15.10;;;1.10;99.90;;;;;;5008751;28;20891;-54
2020/12/26 02:36:36;;;;;;;20.93;13.83;;;1.10;99.90;;;;;;5008024;28;20515;-54
2020/12/26 02:39:05;;;;;;;20.83;13.60;;;1.10;99.90;;;;;;5008284;28;20568;-56
2020/12/26 02:41:34;;;;;;;24.17;13.57;;;1.10;99.90;;;;;;5006849;28;20572;-54
2020/12/26 02:44:01;;;;;;;16.73;12.33;;;1.10;99.90;;;;;;5007713;28;20535;-54
2020/12/26 02:46:28;;;;;;;15.53;11.63;;;1.10;99.90;;;;;;5007815;28;20488;-54
2020/12/26 02:48:56;;;;;;;25.03;15.13;;;1.30;99.90;;;;;;5007858;28;20476;-54
2020/12/26 02:51:23;;;;;;;18.60;13.87;;;1.30;99.90;;;;;;5007199;28;20504;-54
2020/12/26 02:53:50;;;;;;;19.43;13.57;;;1.50;99.90;;;;;;5008155;28;20550;-54
2020/12/26 02:56:18;;;;;;;23.00;15.30;;;1.40;99.90;;;;;;5008733;28;20554;-56
2020/12/26 02:58:46;;;;;;;23.80;15.10;;;1.60;99.90;;;;;;5008068;28;20895;-54
2020/12/26 03:01:13;;;;;;;17.73;12.80;;;1.30;99.90;;;;;;5006722;28;20599;-54
2020/12/26 03:03:41;;;;;;;19.93;13.53;;;1.30;99.90;;;;;;5007262;28;20561;-54
2020/12/26 03:06:10;;;;;;;16.83;13.03;;;1.20;99.90;;;;;;5008293;28;20891;-54
2020/12/26 03:08:37;;;;;;;19.53;13.70;;;1.30;99.90;;;;;;5007835;28;20504;-54
2020/12/26 03:11:05;;;;;;;17.97;12.90;;;1.50;99.90;;;;;;5007126;28;20512;-53
2020/12/26 03:13:32;;;;;;;15.40;12.23;;;1.40;99.90;;;;;;5007202;28;20575;-54
2020/12/26 03:16:01;;;;;;;15.77;12.43;;;1.40;99.90;;;;;;5007819;28;20534;-54
2020/12/26 03:18:28;;;;;;;14.40;11.83;;;1.50;99.90;;;;;;5007934;28;20805;-54
2020/12/26 03:21:14;;;;;;;15.90;12.87;;;1.70;99.90;;;;;;5007185;28;20646;-54
2020/12/26 03:23:41;;;;;;;15.73;11.63;;;1.50;99.90;;;;;;5007553;28;20916;-54
2020/12/26 03:26:09;;;;;;;15.83;11.30;;;1.50;99.90;;;;;;5005824;28;20547;-54
2020/12/26 03:28:37;;;;;;;21.00;13.40;;;1.50;99.90;;;;;;5005041;28;20563;-54
2020/12/26 03:31:05;;;;;;;14.47;11.50;;;1.50;99.90;;;;;;5006508;28;20542;-54
2020/12/26 03:33:33;;;;;;;15.50;11.87;;;1.40;99.90;;;;;;5007409;28;20504;-54
2020/12/26 03:36:00;;;;;;;14.00;10.10;;;1.40;99.90;;;;;;5007884;28;20545;-54
2020/12/26 03:38:27;;;;;;;16.20;9.67;;;1.30;99.90;;;;;;5007545;28;20515;-55
2020/12/26 03:40:55;;;;;;;13.40;9.60;;;1.40;99.90;;;;;;5006435;28;20503;-54
2020/12/26 03:43:22;;;;;;;13.10;10.57;;;1.40;99.90;;;;;;5007397;28;20480;-54
2020/12/26 03:45:50;;;;;;;17.07;9.57;;;1.40;99.90;;;;;;5007883;28;20539;-53
2020/12/26 03:48:18;;;;;;;13.57;10.10;;;1.50;99.90;;;;;;5008121;28;20562;-53
2020/12/26 03:50:45;;;;;;;19.60;12.83;;;1.60;99.90;;;;;;5007019;28;20480;-54
2020/12/26 03:53:13;;;;;;;16.27;11.53;;;1.70;99.90;;;;;;5007104;28;20472;-55
2020/12/26 03:55:40;;;;;;;15.20;10.63;;;1.60;99.90;;;;;;5007446;28;20563;-53
2020/12/26 03:58:08;;;;;;;12.90;9.13;;;1.60;99.90;;;;;;5007552;28;20481;-53
2020/12/26 04:00:35;;;;;;;10.60;8.83;;;1.50;99.90;;;;;;5006259;28;20538;-54
2020/12/26 04:03:02;;;;;;;12.03;9.90;;;1.50;99.90;;;;;;5006875;28;20932;-55
2020/12/26 04:05:31;;;;;;;16.27;10.47;;;1.70;99.90;;;;;;5010451;28;20491;-53
2020/12/26 04:07:58;;;;;;;14.13;10.87;;;1.50;99.90;;;;;;5011134;28;20892;-54
2020/12/26 04:10:26;;;;;;;13.97;10.87;;;1.70;99.90;;;;;;5010122;28;21015;-54
2020/12/26 04:12:53;;;;;;;14.23;9.43;;;1.70;99.90;;;;;;5010377;28;20488;-54
2020/12/26 04:15:20;;;;;;;13.17;8.60;;;1.60;99.90;;;;;;5011408;28;20545;-53
2020/12/26 04:17:48;;;;;;;15.37;8.70;;;1.50;99.90;;;;;;5011485;28;20566;-54
2020/12/26 04:20:15;;;;;;;10.87;8.30;;;1.50;99.90;;;;;;5009912;28;20583;-55
2020/12/26 04:22:43;;;;;;;11.93;8.13;;;1.60;99.90;;;;;;5007833;28;20503;-53
2020/12/26 04:25:10;;;;;;;8.50;7.00;;;1.50;99.90;;;;;;5007039;28;20561;-54
2020/12/26 04:27:38;;;;;;;11.73;7.97;;;1.50;99.90;;;;;;5006221;28;20538;-54
2020/12/26 04:30:06;;;;;;;11.07;7.00;;;1.60;99.90;;;;;;4998094;28;20565;-53
2020/12/26 04:32:34;;;;;;;11.20;7.37;;;1.50;99.90;;;;;;4997732;28;20494;-54
2020/12/26 04:35:01;;;;;;;13.70;7.90;;;1.50;99.90;;;;;;4999209;28;20500;-54
2020/12/26 04:37:29;;;;;;;13.10;8.37;;;1.60;99.90;;;;;;4998586;28;20515;-55
2020/12/26 04:39:58;;;;;;;11.97;8.73;;;1.80;99.90;;;;;;4997843;28;20527;-55
2020/12/26 04:42:25;;;;;;;12.83;8.57;;;1.90;99.90;;;;;;4998414;28;20475;-55
2020/12/26 04:44:53;;;;;;;11.70;8.27;;;1.90;99.90;;;;;;4998277;28;20481;-54
2020/12/26 04:47:30;;;;;;;13.07;8.43;;;1.70;99.90;;;;;;4998340;28;20496;-54
2020/12/26 04:50:00;;;;;;;15.23;7.97;;;1.70;99.90;;;;;;4996050;28;21021;-54
2020/12/26 04:52:31;;;;;;;13.97;8.87;;;1.70;99.90;;;;;;4997299;28;20912;-55
2020/12/26 04:55:03;;;;;;;11.50;9.10;;;1.70;99.90;;;;;;4998606;28;21027;-54
2020/12/26 04:57:35;;;;;;;11.97;9.20;;;1.80;99.90;;;;;;4996941;28;21008;-54
2020/12/26 05:00:04;;;;;;;11.87;8.30;;;1.70;99.90;;;;;;4996244;28;21065;-55
2020/12/26 05:02:41;;;;;;;9.23;8.03;;;1.60;99.90;;;;;;4997478;28;20630;-54
2020/12/26 05:05:09;;;;;;;14.30;8.10;;;1.60;99.90;;;;;;4998282;28;20636;-55
2020/12/26 05:07:36;;;;;;;12.20;8.30;;;1.60;99.90;;;;;;4998523;28;20477;-55
2020/12/26 05:10:05;;;;;;;12.77;8.63;;;1.60;99.90;;;;;;4996537;28;21283;-54
2020/12/26 05:12:33;;;;;;;12.37;8.70;;;1.60;99.90;;;;;;4997641;28;20498;-54
2020/12/26 05:15:02;;;;;;;8.80;7.90;;;1.70;99.90;;;;;;4998723;28;21225;-54
2020/12/26 05:17:29;;;;;;;11.90;8.93;;;1.60;99.90;;;;;;4997940;28;20921;-53
2020/12/26 05:19:57;;;;;;;9.20;8.30;;;1.60;99.90;;;;;;4995111;28;20484;-55
2020/12/26 05:22:30;;;;;;;13.53;8.63;;;1.70;99.90;;;;;;4996023;28;20476;-54
2020/12/26 05:25:07;;;;;;;9.37;8.40;;;1.60;99.90;;;;;;4998212;28;20546;-56
2020/12/26 05:27:35;;;;;;;11.90;9.30;;;1.60;99.90;;;;;;4997790;28;20559;-54
2020/12/26 05:30:03;;;;;;;15.97;8.93;;;1.70;99.90;;;;;;4996585;28;20496;-54
2020/12/26 05:32:32;;;;;;;10.43;8.40;;;1.70;99.90;;;;;;4997075;28;20524;-55
2020/12/26 05:35:07;;;;;;;11.73;9.10;;;1.70;99.90;;;;;;4998294;28;20568;-53
2020/12/26 05:37:35;;;;;;;12.20;8.23;;;1.70;99.90;;;;;;4997793;28;20520;-53
2020/12/26 05:40:05;;;;;;;10.63;7.90;;;1.70;99.90;;;;;;4995561;28;20876;-54
2020/12/26 05:42:33;;;;;;;9.13;7.70;;;1.70;99.90;;;;;;4997502;28;20522;-53
2020/12/26 05:45:11;;;;;;;11.10;8.07;;;1.60;99.90;;;;;;4998147;28;20495;-53
2020/12/26 05:47:39;;;;;;;9.13;7.70;;;1.60;99.90;;;;;;4996960;28;20492;-54
2020/12/26 05:50:23;;;;;;;9.50;7.77;;;1.60;99.90;;;;;;4995327;28;20503;-53
2020/12/26 05:52:54;;;;;;;10.80;7.40;;;1.80;99.90;;;;;;4997557;28;20516;-53
2020/12/26 05:55:23;;;;;;;13.60;7.90;;;1.70;99.90;;;;;;4998042;28;21239;-54
2020/12/26 05:57:53;;;;;;;10.10;8.20;;;1.70;99.90;;;;;;4997755;28;20515;-54
2020/12/26 06:00:32;;;;;;;11.63;7.87;;;1.70;99.90;;;;;;4995534;28;20496;-55
2020/12/26 06:02:59;;;;;;;11.10;7.30;;;1.80;99.90;;;;;;4996578;28;21027;-55
2020/12/26 06:05:28;;;;;;;13.77;7.00;;;1.80;99.90;;;;;;4997724;28;20484;-55
2020/12/26 06:07:56;;;;;;;10.97;6.63;;;1.70;99.90;;;;;;4996355;28;20525;-53
2020/12/26 06:10:24;;;;;;;10.33;7.63;;;1.80;99.90;;;;;;4993179;28;20591;-53
2020/12/26 06:12:52;;;;;;;7.47;6.27;;;1.80;99.90;;;;;;4994714;28;20484;-54
2020/12/26 06:15:26;;;;;;;12.27;6.90;;;1.80;99.90;;;;;;4994183;28;20480;-53
2020/12/26 06:18:13;;;;;;;12.53;6.50;;;1.80;99.90;;;;;;4993489;28;20574;-56
2020/12/26 06:20:41;;;;;;;9.97;7.03;;;1.90;99.90;;;;;;4989974;28;20576;-54
2020/12/26 06:23:17;;;;;;;10.70;6.13;;;1.90;99.90;;;;;;4996352;28;20538;-54
2020/12/26 06:25:46;;;;;;;9.70;6.17;;;1.90;99.90;;;;;;4996660;28;20569;-53
2020/12/26 06:28:27;;;;;;;8.43;5.70;;;2.00;99.90;;;;;;4996657;28;20546;-53
2020/12/26 06:30:58;;;;;;;8.50;5.80;;;1.90;99.90;;;;;;4994051;28;20488;-53
2020/12/26 06:33:29;;;;;;;10.27;5.60;;;2.00;99.90;;;;;;4996729;28;20483;-53
2020/12/26 06:35:58;;;;;;;9.97;5.10;;;1.90;99.90;;;;;;4996966;28;20599;-53
2020/12/26 06:38:28;;;;;;;10.23;5.50;;;1.90;99.90;;;;;;4996745;28;20559;-53
2020/12/26 06:41:01;;;;;;;9.57;4.97;;;2.10;99.90;;;;;;4994601;28;20512;-53
2020/12/26 06:43:49;;;;;;;6.73;5.23;;;2.10;99.90;;;;;;4996626;28;20482;-54
2020/12/26 06:46:40;;;;;;;7.07;4.70;;;2.00;99.90;;;;;;4996378;28;20580;-53
2020/12/26 06:49:24;;;;;;;6.60;4.43;;;2.00;99.90;;;;;;4994491;28;21118;-53
2020/12/26 06:51:52;;;;;;;14.17;5.40;;;2.10;99.90;;;;;;4995144;28;20574;-53
2020/12/26 06:54:48;;;;;;;7.73;4.73;;;2.20;99.90;;;;;;4996953;28;20512;-53
2020/12/26 06:57:46;;;;;;;9.97;4.50;;;2.10;99.90;;;;;;4996643;28;20564;-54
2020/12/26 07:00:30;;;;;;;6.67;4.63;;;2.20;99.90;;;;;;4913583;29;20484;-53
2020/12/26 07:03:19;;;;;;;9.10;5.00;;;2.10;99.90;;;;;;4987025;28;20488;-54
2020/12/26 07:05:48;;;;;;;8.63;5.10;;;2.10;99.90;;;;;;4991250;28;20480;-53
2020/12/26 07:08:29;;;;;;;7.90;4.77;;;2.10;99.90;;;;;;4996219;28;21077;-53
2020/12/26 07:11:00;;;;;;;6.63;4.67;;;2.00;99.90;;;;;;4993668;28;20528;-53
2020/12/26 07:13:49;;;;;;;7.47;4.13;;;2.00;99.90;;;;;;4994728;28;20979;-53
2020/12/26 07:16:45;;;;;;;11.90;4.10;;;2.00;99.90;;;;;;4996618;28;20506;-53
2020/12/26 07:19:32;;;;;;;7.23;4.23;;;2.00;99.90;;;;;;4994113;28;20534;-53
2020/12/26 07:22:02;;;;;;;7.60;4.27;;;2.00;99.90;;;;;;4995531;28;20484;-53
2020/12/26 07:24:34;;;;;;;9.43;4.47;;;2.00;99.90;;;;;;4995873;28;20503;-54
2020/12/26 07:27:32;;;;;;;7.17;4.30;;;2.00;99.90;;;;;;4996529;28;20576;-54
2020/12/26 07:30:09;;;;;;;5.97;4.20;;;2.00;99.90;;;;;;4993269;28;20874;-55
2020/12/26 07:32:52;;;;;;;9.33;4.63;;;2.10;99.90;;;;;;4995512;28;20503;-53
2020/12/26 07:35:35;;;;;;;6.87;4.20;;;2.00;99.90;;;;;;4995772;28;21086;-53
2020/12/26 07:38:16;;;;;;;7.47;4.10;;;2.00;99.90;;;;;;4996543;28;20745;-53
2020/12/26 07:40:47;;;;;;;7.03;4.03;;;2.10;99.90;;;;;;4996951;28;21629;-54
2020/12/26 07:43:17;;;;;;;9.27;4.40;;;2.10;99.90;;;;;;5000027;28;20472;-53
2020/12/26 07:45:47;;;;;;;6.47;4.17;;;2.10;99.90;;;;;;5000143;28;20481;-54
2020/12/26 07:48:14;;;;;;;7.57;3.97;;;2.20;99.90;;;;;;4999325;28;20485;-53
2020/12/26 07:50:43;;;;;;;7.83;4.10;;;2.20;99.90;;;;;;4997639;28;20798;-53
2020/12/26 07:53:14;;;;;;;5.93;3.67;;;2.20;99.90;;;;;;4998514;28;20480;-54
2020/12/26 07:55:42;;;;;;;9.03;3.73;;;2.20;99.90;;;;;;4998318;28;21211;-53
2020/12/26 07:58:12;;;;;;;6.80;4.03;;;2.20;99.90;;;;;;4997989;28;20480;-53
2020/12/26 08:00:41;;;;;;;11.63;4.10;;;2.20;99.90;;;;;;4995330;28;20484;-53
2020/12/26 08:03:11;;;;;;;9.37;4.40;;;2.30;99.90;;;;;;4998775;28;20575;-53
2020/12/26 08:05:48;;;;;;;6.83;3.83;;;2.30;99.90;;;;;;5013120;28;20550;-53
2020/12/26 08:08:16;;;;;;;10.30;4.70;;;2.30;99.90;;;;;;4989721;28;20481;-53
2020/12/26 08:10:44;;;;;;;9.63;4.83;;;2.50;99.90;;;;;;5000458;28;20981;-54
2020/12/26 08:13:16;;;;;;;9.67;4.80;;;2.50;99.90;;;;;;5009480;28;20552;-53
2020/12/26 08:15:44;;;;;;;7.97;4.70;;;2.40;99.90;;;;;;5007552;28;20567;-54
2020/12/26 08:18:13;;;;;;;7.60;4.77;;;2.40;99.90;;;;;;5009711;28;20548;-53
2020/12/26 08:20:40;;;;;;;8.40;4.90;;;2.50;99.90;;;;;;5010179;28;20468;-54
2020/12/26 08:23:12;;;;;;;8.77;4.33;;;2.50;99.90;;;;;;5011270;28;20551;-53
2020/12/26 08:25:40;;;;;;;8.87;4.60;;;2.40;99.90;;;;;;5010510;28;20519;-54
2020/12/26 08:28:09;;;;;;;9.77;4.67;;;2.40;99.90;;;;;;5011473;28;20472;-53
2020/12/26 08:30:38;;;;;;;7.30;4.60;;;2.50;99.90;;;;;;5008853;28;20600;-53
2020/12/26 08:33:26;;;;;;;10.23;4.30;;;2.40;99.90;;;;;;5009607;28;20554;-53
2020/12/26 08:36:02;;;;;;;8.10;4.60;;;2.40;99.90;;;;;;5010475;28;20536;-53
2020/12/26 08:38:39;;;;;;;8.90;5.00;;;2.50;99.90;;;;;;5010585;28;20474;-53
2020/12/26 08:41:07;;;;;;;9.53;5.07;;;2.40;99.90;;;;;;5009129;28;20501;-53
2020/12/26 08:43:38;;;;;;;10.10;5.97;;;2.50;99.90;;;;;;5010678;28;20503;-53
2020/12/26 08:46:13;;;;;;;6.83;5.10;;;2.50;99.90;;;;;;5011052;28;20474;-53
2020/12/26 08:48:42;;;;;;;12.37;6.10;;;2.60;99.90;;;;;;5010466;28;20498;-55
2020/12/26 08:51:19;;;;;;;8.23;5.17;;;2.60;99.90;;;;;;5009766;28;20467;-53
2020/12/26 08:53:46;;;;;;;7.70;5.57;;;2.70;99.90;;;;;;5010465;28;20875;-53
2020/12/26 08:56:14;;;;;;;10.43;5.50;;;2.70;99.90;;;;;;5011053;28;20805;-53
2020/12/26 08:58:50;;;;;;;9.63;5.07;;;2.80;99.90;;;;;;5010333;28;20670;-53
2020/12/26 09:01:17;;;;;;;9.07;5.27;;;2.60;99.90;;;;;;5009671;28;20568;-54
2020/12/26 09:03:50;;;;;;;10.47;5.97;;;2.70;99.90;;;;;;5010604;28;20867;-53
2020/12/26 09:06:29;;;;;;;8.30;5.23;;;2.70;99.90;;;;;;5010758;28;20481;-53
2020/12/26 09:08:57;;;;;;;12.27;5.57;;;2.80;99.90;;;;;;5013840;28;20514;-53
2020/12/26 09:11:30;;;;;;;10.67;5.87;;;2.90;99.90;;;;;;5015893;28;20904;-53
2020/12/26 09:13:57;;;;;;;7.20;5.40;;;2.80;99.90;;;;;;5007077;28;21011;-53
2020/12/26 09:16:28;;;;;;;9.63;5.53;;;2.90;99.90;;;;;;5010047;28;21050;-53
2020/12/26 09:19:01;;;;;;;14.00;5.90;;;2.80;99.90;;;;;;5010087;28;20506;-54
2020/12/26 09:21:30;;;;;;;12.93;6.20;;;2.90;99.90;;;;;;5007912;28;20492;-53
2020/12/26 09:23:58;;;;;;;8.93;6.40;;;3.00;99.90;;;;;;5010417;28;20489;-53
2020/12/26 09:26:28;;;;;;;11.70;6.23;;;2.90;99.90;;;;;;5010047;28;20595;-53
2020/12/26 09:28:57;;;;;;;10.20;6.10;;;2.90;99.90;;;;;;5009684;28;20570;-53
2020/12/26 09:31:26;;;;;;;11.60;6.20;;;3.00;99.90;;;;;;5008904;28;20488;-53
2020/12/26 09:33:57;;;;;;;11.63;6.93;;;3.00;99.90;;;;;;5009945;28;20478;-53
2020/12/26 09:36:26;;;;;;;11.37;6.97;;;3.20;99.90;;;;;;5010103;28;20527;-53
2020/12/26 09:38:54;;;;;;;10.20;7.13;;;3.20;99.90;;;;;;5003668;28;20503;-53
2020/12/26 09:41:24;;;;;;;13.47;6.80;;;3.30;99.90;;;;;;5011595;28;20471;-53
2020/12/26 09:43:54;;;;;;;9.90;7.07;;;3.30;99.90;;;;;;5011946;28;20476;-53
2020/12/26 09:46:22;;;;;;;9.97;6.53;;;3.20;99.90;;;;;;5017517;28;20502;-53
2020/12/26 09:48:50;;;;;;;14.17;7.40;;;3.10;99.90;;;;;;5014569;28;20593;-53
2020/12/26 09:51:20;;;;;;;11.57;6.30;;;3.00;99.90;;;;;;5028979;28;20483;-53
2020/12/26 09:53:50;;;;;;;10.50;6.20;;;3.00;99.90;;;;;;5028719;28;20510;-53
2020/12/26 09:56:19;;;;;;;7.67;5.63;;;3.00;99.90;;;;;;5010118;28;21003;-53
2020/12/26 09:58:48;;;;;;;12.17;6.57;;;3.00;99.90;;;;;;5009715;28;20987;-53
2020/12/26 10:01:17;;;;;;;10.23;6.00;;;3.00;99.90;;;;;;5007341;28;20548;-53
2020/12/26 10:03:45;;;;;;;11.00;6.83;;;3.00;99.90;;;;;;5009154;28;20500;-53
2020/12/26 10:06:14;;;;;;;12.33;6.83;;;3.00;99.90;;;;;;5007826;28;21086;-53
2020/12/26 10:08:44;;;;;;;12.37;7.37;;;3.00;99.90;;;;;;5012079;28;20972;-53
2020/12/26 10:11:12;;;;;;;11.67;6.80;;;3.00;99.90;;;;;;5005451;28;20483;-53
2020/12/26 10:13:40;;;;;;;14.40;7.10;;;3.00;99.90;;;;;;5008573;28;20531;-53
2020/12/26 10:16:08;;;;;;;10.27;7.00;;;3.00;99.90;;;;;;5009173;28;20507;-53
2020/12/26 10:18:35;;;;;;;11.23;7.17;;;3.00;99.90;;;;;;5009334;28;20564;-53
2020/12/26 10:21:03;;;;;;;12.37;7.43;;;3.10;99.90;;;;;;5007760;28;20540;-53
2020/12/26 10:23:30;;;;;;;13.17;7.03;;;3.10;99.90;;;;;;5008852;28;21053;-53
2020/12/26 10:26:05;;;;;;;13.13;7.67;;;3.10;99.90;;;;;;5009041;28;20851;-53
2020/12/26 10:28:33;;;;;;;12.07;7.87;;;3.10;99.90;;;;;;5008691;28;20477;-53
2020/12/26 10:31:01;;;;;;;12.80;7.70;;;3.10;99.90;;;;;;5007710;28;20793;-53
2020/12/26 10:33:29;;;;;;;10.53;7.40;;;3.10;99.90;;;;;;5008284;28;20478;-53
2020/12/26 10:35:56;;;;;;;15.27;8.57;;;3.20;99.90;;;;;;5009016;28;20509;-53
2020/12/26 10:38:24;;;;;;;10.00;8.03;;;3.20;99.90;;;;;;5007359;28;20508;-53
2020/12/26 10:40:51;;;;;;;13.47;8.67;;;3.20;99.90;;;;;;5005735;28;20558;-53
2020/12/26 10:43:19;;;;;;;14.60;8.53;;;3.20;99.90;;;;;;5007420;28;20547;-53
2020/12/26 10:45:46;;;;;;;12.63;9.67;;;3.20;99.90;;;;;;5006868;28;20504;-52
2020/12/26 10:48:14;;;;;;;13.43;10.03;;;3.20;99.90;;;;;;5006706;28;20904;-53
2020/12/26 10:50:41;;;;;;;12.67;9.50;;;3.30;99.90;;;;;;5003384;28;20788;-53
2020/12/26 10:53:08;;;;;;;17.27;10.73;;;3.30;99.90;;;;;;5006554;28;20502;-53
2020/12/26 10:55:36;;;;;;;16.00;11.57;;;3.30;99.90;;;;;;5006532;28;20489;-53
2020/12/26 10:58:03;;;;;;;12.50;11.03;;;3.30;99.90;;;;;;5004317;28;20479;-53
2020/12/26 11:00:31;;;;;;;16.77;11.17;;;3.30;99.90;;;;;;5005310;28;20530;-53
2020/12/26 11:03:00;;;;;;;16.93;11.77;;;3.40;99.90;;;;;;5004570;28;20512;-55
2020/12/26 11:05:27;;;;;;;15.93;11.50;;;3.40;99.90;;;;;;5005987;28;21211;-53
2020/12/26 11:07:55;;;;;;;15.33;12.37;;;3.40;99.90;;;;;;5005094;28;20562;-53
2020/12/26 11:10:23;;;;;;;15.80;12.40;;;3.40;99.90;;;;;;5005807;28;20789;-53
2020/12/26 11:12:50;;;;;;;18.77;11.73;;;3.50;99.90;;;;;;5006167;28;20481;-53
2020/12/26 11:15:18;;;;;;;16.37;12.33;;;3.50;99.90;;;;;;5007102;28;20476;-53
2020/12/26 11:17:46;;;;;;;21.93;12.67;;;3.50;99.90;;;;;;5007229;28;21184;-53
2020/12/26 11:20:13;;;;;;;17.63;13.23;;;3.50;99.90;;;;;;5006299;28;20562;-53
2020/12/26 11:22:40;;;;;;;16.30;13.13;;;3.50;99.90;;;;;;5006418;28;20524;-53
2020/12/26 11:25:08;;;;;;;18.00;13.17;;;3.50;99.90;;;;;;5006755;28;21072;-53
2020/12/26 11:27:35;;;;;;;17.87;12.43;;;3.60;99.90;;;;;;5004695;28;20517;-53
2020/12/26 11:30:03;;;;;;;19.27;13.03;;;3.60;99.90;;;;;;4986796;28;20487;-53
2020/12/26 11:32:31;;;;;;;17.13;12.63;;;3.60;99.90;;;;;;4985993;28;20483;-53
2020/12/26 11:34:59;;;;;;;16.20;13.33;;;3.60;99.90;;;;;;4987378;28;20595;-53
2020/12/26 11:37:26;;;;;;;19.40;13.77;;;3.70;99.90;;;;;;4987137;28;20510;-53
2020/12/26 11:39:55;;;;;;;17.57;13.97;;;3.70;99.90;;;;;;4986656;28;20571;-53
2020/12/26 11:42:22;;;;;;;19.63;15.37;;;3.70;99.90;;;;;;4986186;28;20487;-53
2020/12/26 11:44:50;;;;;;;20.30;14.63;;;3.70;99.90;;;;;;4995629;28;20569;-53
2020/12/26 11:47:17;;;;;;;20.23;15.10;;;3.70;99.90;;;;;;5007248;28;21019;-53
2020/12/26 11:49:44;;;;;;;23.20;16.20;;;3.70;99.90;;;;;;5006242;28;21107;-53
2020/12/26 11:52:12;;;;;;;18.17;15.17;;;3.80;99.90;;;;;;5005768;28;20989;-53
2020/12/26 11:54:41;;;;;;;22.53;16.30;;;3.80;99.90;;;;;;5006283;28;20503;-54
2020/12/26 11:57:08;;;;;;;20.90;16.13;;;3.80;99.90;;;;;;5006339;28;21192;-53
2020/12/26 11:59:35;;;;;;;22.33;15.27;;;3.90;99.90;;;;;;5006060;28;20478;-53
2020/12/26 12:02:03;;;;;;;19.80;15.77;;;3.90;99.90;;;;;;5005077;28;20559;-53
2020/12/26 12:04:30;;;;;;;17.20;14.47;;;3.90;99.90;;;;;;5004100;28;20514;-53
2020/12/26 12:06:57;;;;;;;18.00;14.43;;;4.00;99.90;;;;;;5004141;28;20476;-53
2020/12/26 12:09:26;;;;;;;18.03;14.83;;;4.00;99.90;;;;;;5005326;28;20483;-53
2020/12/26 12:11:54;;;;;;;19.70;14.67;;;4.00;99.90;;;;;;5005284;28;20500;-53
2020/12/26 12:14:21;;;;;;;19.07;14.57;;;4.00;99.90;;;;;;5006710;28;20508;-53
2020/12/26 12:16:48;;;;;;;21.07;14.40;;;4.00;99.90;;;;;;5006522;28;20482;-53
2020/12/26 12:19:16;;;;;;;16.37;13.43;;;4.10;99.90;;;;;;5006405;28;20477;-53
2020/12/26 12:21:47;;;;;;;17.33;13.80;;;4.10;99.90;;;;;;5004888;28;20489;-53
2020/12/26 12:24:14;;;;;;;15.43;13.83;;;4.10;99.90;;;;;;5006219;28;20484;-53
2020/12/26 12:26:43;;;;;;;18.27;13.60;;;4.10;99.90;;;;;;5008898;28;20491;-53
2020/12/26 12:29:10;;;;;;;17.73;14.17;;;4.10;99.90;;;;;;5009902;28;20539;-53
2020/12/26 12:31:39;;;;;;;14.93;13.27;;;4.10;99.90;;;;;;5008621;28;20568;-53
2020/12/26 12:34:07;;;;;;;15.20;13.47;;;4.20;99.90;;;;;;5009764;28;21010;-53
2020/12/26 12:36:35;;;;;;;18.37;13.50;;;4.20;99.90;;;;;;5009340;28;20480;-53
2020/12/26 12:39:04;;;;;;;14.53;13.00;;;4.20;99.90;;;;;;5009575;28;20476;-53
2020/12/26 12:41:31;;;;;;;17.37;13.47;;;4.20;99.90;;;;;;5008661;28;20940;-53
2020/12/26 12:43:59;;;;;;;17.67;13.70;;;4.20;99.90;;;;;;5009610;28;20487;-53
2020/12/26 12:46:27;;;;;;;17.83;14.50;;;4.20;99.90;;;;;;5008905;28;20474;-54
2020/12/26 12:48:54;;;;;;;17.80;13.00;;;4.20;99.90;;;;;;5009271;28;20478;-53
2020/12/26 12:51:27;;;;;;;19.33;14.50;;;4.20;99.90;;;;;;5008637;28;20909;-53
2020/12/26 12:53:54;;;;;;;15.87;12.63;;;4.20;99.90;;;;;;5009552;28;20638;-53
2020/12/26 12:56:30;;;;;;;16.83;13.23;;;4.20;99.90;;;;;;5009284;28;21004;-53